createdAt,value
2017-10-03T00:00:24.057Z,3.80
2017-10-03T00:02:26.535Z,3.70
2017-10-03T00:04:28.992Z,3.63
2017-10-03T00:06:31.463Z,2.97
2017-10-03T00:08:34.038Z,5.23
2017-10-03T00:10:36.484Z,5.30
2017-10-03T00:12:38.984Z,4.33
2017-10-03T00:14:41.558Z,3.37
2017-10-03T00:16:44.004Z,3.90
2017-10-03T00:18:46.500Z,3.63
2017-10-03T00:20:48.971Z,2.83
2017-10-03T00:22:51.489Z,2.80
2017-10-03T00:24:53.944Z,2.73
2017-10-03T00:26:56.425Z,2.33
2017-10-03T00:28:58.945Z,4.07
2017-10-03T00:31:01.381Z,3.77
2017-10-03T00:33:03.879Z,4.13
2017-10-03T00:35:06.319Z,3.60
2017-10-03T00:37:08.777Z,3.20
2017-10-03T00:39:11.400Z,2.87
2017-10-03T00:41:13.844Z,2.70
2017-10-03T00:43:16.271Z,4.17
2017-10-03T00:45:18.752Z,5.53
2017-10-03T00:47:21.283Z,3.10
2017-10-03T00:49:23.721Z,6.43
2017-10-03T00:51:26.221Z,4.30
2017-10-03T00:53:28.672Z,1.97
2017-10-03T00:55:31.108Z,2.80
2017-10-03T00:57:33.627Z,3.03
2017-10-03T00:59:36.061Z,2.00
2017-10-03T01:01:38.584Z,3.27
2017-10-03T01:03:41.056Z,2.63
2017-10-03T01:05:43.484Z,4.00
2017-10-03T01:07:45.934Z,3.57
2017-10-03T01:09:48.412Z,4.10
2017-10-03T01:11:50.847Z,3.90
2017-10-03T01:13:53.289Z,3.60
2017-10-03T01:15:55.756Z,3.10
2017-10-03T01:17:58.204Z,3.90
2017-10-03T01:20:00.652Z,2.43
2017-10-03T01:22:03.116Z,6.50
2017-10-03T01:24:05.556Z,4.67
2017-10-03T01:26:08.004Z,3.47
2017-10-03T01:28:10.520Z,2.13
2017-10-03T01:30:12.960Z,7.13
2017-10-03T01:32:15.402Z,2.37
2017-10-03T01:34:17.893Z,3.67
2017-10-03T01:36:20.359Z,2.43
2017-10-03T01:38:22.800Z,3.50
2017-10-03T01:40:25.392Z,2.47
2017-10-03T01:42:27.833Z,4.70
2017-10-03T01:44:30.275Z,1.90
2017-10-03T01:46:32.762Z,3.80
2017-10-03T01:48:35.209Z,4.27
2017-10-03T01:50:37.652Z,7.17
2017-10-03T01:52:40.124Z,2.13
2017-10-03T01:54:42.559Z,4.57
2017-10-03T01:56:45.017Z,2.90
2017-10-03T01:58:47.670Z,2.97
2017-10-03T02:00:50.116Z,5.40
2017-10-03T02:02:52.557Z,3.00
2017-10-03T02:04:55.040Z,5.60
2017-10-03T02:06:57.482Z,6.43
2017-10-03T02:08:59.930Z,5.40
2017-10-03T02:11:02.400Z,2.37
2017-10-03T02:13:04.836Z,3.70
2017-10-03T02:15:07.268Z,2.50
2017-10-03T02:17:09.739Z,3.03
2017-10-03T02:19:12.219Z,2.83
2017-10-03T02:21:14.657Z,2.53
2017-10-03T02:23:17.121Z,2.27
2017-10-03T02:25:19.559Z,2.50
2017-10-03T02:27:22.112Z,3.27
2017-10-03T02:29:24.570Z,2.33
2017-10-03T02:31:27.020Z,4.53
2017-10-03T02:33:29.457Z,2.87
2017-10-03T02:35:31.995Z,2.87
2017-10-03T02:37:34.485Z,3.23
2017-10-03T02:39:37.029Z,3.13
2017-10-03T02:41:39.603Z,4.70
2017-10-03T02:43:42.078Z,2.03
2017-10-03T02:45:44.513Z,4.13
2017-10-03T02:47:46.984Z,2.80
2017-10-03T02:49:49.419Z,3.53
2017-10-03T02:51:51.861Z,2.47
2017-10-03T02:53:54.333Z,3.10
2017-10-03T02:55:56.767Z,2.93
2017-10-03T02:57:59.224Z,2.87
2017-10-03T03:00:01.696Z,1.93
2017-10-03T03:02:04.142Z,4.73
2017-10-03T03:06:14.359Z,2.30
2017-10-03T03:08:16.800Z,1.60
2017-10-03T03:10:19.232Z,1.70
2017-10-03T03:12:21.780Z,3.83
2017-10-03T03:14:24.226Z,2.40
2017-10-03T03:16:26.739Z,2.73
2017-10-03T03:18:29.214Z,4.70
2017-10-03T03:20:31.653Z,3.70
2017-10-03T03:22:34.102Z,2.30
2017-10-03T03:24:36.561Z,2.70
2017-10-03T03:26:39.009Z,2.90
2017-10-03T03:28:41.540Z,2.50
2017-10-03T03:30:44.000Z,2.83
2017-10-03T03:32:46.449Z,3.70
2017-10-03T03:34:48.960Z,3.70
2017-10-03T03:36:51.432Z,2.43
2017-10-03T03:38:53.874Z,1.97
2017-10-03T03:40:56.313Z,2.93
2017-10-03T03:42:58.896Z,4.80
2017-10-03T03:45:01.336Z,5.50
2017-10-03T03:47:03.768Z,2.70
2017-10-03T03:49:06.238Z,2.83
2017-10-03T03:51:08.716Z,2.63
2017-10-03T03:53:11.156Z,3.47
2017-10-03T03:55:13.616Z,2.67
2017-10-03T03:57:16.050Z,2.07
2017-10-03T03:59:18.494Z,2.53
2017-10-03T04:01:20.953Z,3.27
2017-10-03T04:03:23.436Z,5.10
2017-10-03T04:05:25.877Z,4.50
2017-10-03T04:07:28.357Z,2.30
2017-10-03T04:09:30.803Z,3.30
2017-10-03T04:11:33.235Z,3.23
2017-10-03T04:13:35.780Z,2.20
2017-10-03T04:15:38.213Z,3.70
2017-10-03T04:17:40.662Z,3.20
2017-10-03T04:19:43.493Z,2.50
2017-10-03T04:21:45.928Z,2.80
2017-10-03T04:23:48.355Z,2.57
2017-10-03T04:25:50.969Z,1.90
2017-10-03T04:27:53.487Z,2.73
2017-10-03T04:29:55.948Z,2.50
2017-10-03T04:31:58.435Z,3.30
2017-10-03T04:34:00.865Z,2.37
2017-10-03T04:36:03.291Z,2.23
2017-10-03T04:38:05.763Z,3.67
2017-10-03T04:40:08.299Z,3.37
2017-10-03T04:42:10.730Z,2.67
2017-10-03T04:44:13.300Z,2.23
2017-10-03T04:46:15.775Z,3.27
2017-10-03T04:48:18.221Z,3.40
2017-10-03T04:50:20.772Z,2.90
2017-10-03T04:52:23.234Z,2.80
2017-10-03T04:54:25.668Z,2.57
2017-10-03T04:56:28.195Z,2.30
2017-10-03T04:58:30.624Z,2.17
2017-10-03T05:00:33.072Z,4.10
2017-10-03T05:02:35.542Z,2.00
2017-10-03T05:04:37.992Z,1.63
2017-10-03T05:06:40.520Z,3.00
2017-10-03T05:08:42.989Z,1.70
2017-10-03T05:10:45.423Z,2.23
2017-10-03T05:12:47.858Z,2.53
2017-10-03T05:14:50.396Z,2.87
2017-10-03T05:16:53.756Z,2.83
2017-10-03T05:18:56.264Z,4.13
2017-10-03T05:20:58.730Z,1.93
2017-10-03T05:23:01.180Z,5.47
2017-10-03T05:25:03.664Z,2.70
2017-10-03T05:27:06.136Z,4.33
2017-10-03T05:29:08.580Z,2.27
2017-10-03T05:31:11.072Z,3.30
2017-10-03T05:33:13.532Z,4.17
2017-10-03T05:35:15.973Z,2.67
2017-10-03T05:37:18.429Z,1.70
2017-10-03T05:39:20.996Z,2.73
2017-10-03T05:41:23.423Z,2.27
2017-10-03T05:43:25.859Z,4.30
2017-10-03T05:45:28.776Z,2.90
2017-10-03T05:47:31.216Z,4.63
2017-10-03T05:49:33.648Z,2.03
2017-10-03T05:51:36.105Z,3.63
2017-10-03T05:53:38.548Z,2.60
2017-10-03T05:55:40.996Z,2.23
2017-10-03T05:57:43.465Z,2.53
2017-10-03T05:59:45.913Z,2.20
2017-10-03T06:01:48.441Z,2.60
2017-10-03T06:03:50.922Z,3.00
2017-10-03T06:05:53.363Z,2.33
2017-10-03T06:07:55.831Z,2.93
2017-10-03T06:09:58.331Z,3.63
2017-10-03T06:12:00.771Z,2.70
2017-10-03T06:14:03.222Z,3.40
2017-10-03T06:16:05.719Z,4.23
2017-10-03T06:18:08.170Z,1.93
2017-10-03T06:20:10.699Z,7.33
2017-10-03T06:22:13.179Z,3.03
2017-10-03T06:24:15.613Z,2.63
2017-10-03T06:26:18.070Z,3.13
2017-10-03T06:28:20.544Z,2.40
2017-10-03T06:30:23.044Z,1.70
2017-10-03T06:32:25.487Z,2.53
2017-10-03T06:34:27.959Z,1.87
2017-10-03T06:36:30.394Z,1.70
2017-10-03T06:38:32.841Z,2.37
2017-10-03T06:40:35.320Z,1.67
2017-10-03T06:42:37.769Z,3.70
2017-10-03T06:44:40.256Z,2.03
2017-10-03T06:46:42.745Z,1.60
2017-10-03T06:48:45.182Z,2.47
2017-10-03T06:50:47.644Z,2.50
2017-10-03T06:52:50.124Z,2.20
2017-10-03T06:54:52.551Z,1.83
2017-10-03T06:56:55.026Z,1.40
2017-10-03T06:58:57.485Z,3.50
2017-10-03T07:00:59.925Z,3.77
2017-10-03T07:03:02.360Z,3.50
2017-10-03T07:05:04.828Z,4.33
2017-10-03T07:07:07.271Z,2.20
2017-10-03T07:09:09.713Z,3.10
2017-10-03T07:11:12.223Z,1.90
2017-10-03T07:13:14.665Z,2.83
2017-10-03T07:15:17.125Z,2.73
2017-10-03T07:17:19.628Z,2.30
2017-10-03T07:19:22.091Z,1.67
2017-10-03T07:21:24.529Z,2.23
2017-10-03T07:23:26.994Z,2.33
2017-10-03T07:25:29.423Z,1.93
2017-10-03T07:27:31.860Z,1.87
2017-10-03T07:29:34.311Z,1.63
2017-10-03T07:31:36.837Z,1.60
2017-10-03T07:33:39.296Z,1.40
2017-10-03T07:35:41.748Z,2.33
2017-10-03T07:37:44.192Z,1.90
2017-10-03T07:39:46.717Z,3.33
2017-10-03T07:41:49.288Z,2.00
2017-10-03T07:43:51.728Z,1.60
2017-10-03T07:45:54.170Z,2.10
2017-10-03T07:47:57.704Z,2.20
2017-10-03T07:50:00.141Z,3.67
2017-10-03T07:52:02.673Z,3.00
2017-10-03T07:54:05.154Z,1.87
2017-10-03T07:56:07.607Z,1.97
2017-10-03T07:58:10.044Z,2.47
2017-10-03T08:00:12.518Z,2.60
2017-10-03T08:02:14.968Z,3.10
2017-10-03T08:04:17.430Z,1.97
2017-10-03T08:06:19.912Z,3.20
2017-10-03T08:08:22.349Z,3.00
2017-10-03T08:10:24.792Z,2.70
2017-10-03T08:12:27.255Z,2.17
2017-10-03T08:14:29.729Z,3.30
2017-10-03T08:16:32.156Z,1.67
2017-10-03T08:18:34.658Z,2.20
2017-10-03T08:20:37.087Z,1.77
2017-10-03T08:22:39.565Z,4.30
2017-10-03T08:24:42.073Z,1.60
2017-10-03T08:26:44.516Z,2.03
2017-10-03T08:28:47.068Z,2.20
2017-10-03T08:30:49.528Z,2.63
2017-10-03T08:32:51.993Z,2.33
2017-10-03T08:34:54.520Z,2.13
2017-10-03T08:36:56.991Z,3.87
2017-10-03T08:38:59.423Z,1.80
2017-10-03T08:41:01.872Z,3.63
2017-10-03T08:43:04.342Z,2.63
2017-10-03T08:45:06.775Z,2.60
2017-10-03T08:47:09.212Z,3.50
2017-10-03T08:49:11.811Z,1.93
2017-10-03T08:51:14.289Z,2.10
2017-10-03T08:53:16.725Z,3.10
2017-10-03T08:55:19.192Z,4.30
2017-10-03T08:57:21.619Z,3.73
2017-10-03T08:59:24.052Z,1.40
2017-10-03T09:01:26.509Z,2.50
2017-10-03T09:03:28.992Z,2.90
2017-10-03T09:05:31.479Z,2.10
2017-10-03T09:07:34.038Z,2.90
2017-10-03T09:09:36.544Z,1.80
2017-10-03T09:11:38.993Z,3.73
2017-10-03T09:13:41.460Z,1.70
2017-10-03T09:15:43.917Z,2.10
2017-10-03T09:17:46.366Z,1.93
2017-10-03T09:19:48.851Z,2.60
2017-10-03T09:21:51.336Z,2.47
2017-10-03T09:23:53.778Z,2.00
2017-10-03T09:25:56.279Z,3.03
2017-10-03T09:27:58.727Z,2.67
2017-10-03T09:30:01.179Z,3.00
2017-10-03T09:32:03.656Z,4.00
2017-10-03T09:34:06.332Z,2.40
2017-10-03T09:36:08.829Z,2.53
2017-10-03T09:38:11.293Z,2.73
2017-10-03T09:40:13.732Z,1.40
2017-10-03T09:42:16.160Z,1.30
2017-10-03T09:44:18.633Z,1.53
2017-10-03T09:46:21.076Z,2.93
2017-10-03T09:48:23.599Z,1.97
2017-10-03T09:50:26.133Z,1.87
2017-10-03T09:52:28.571Z,2.20
2017-10-03T09:54:31.073Z,2.43
2017-10-03T09:56:33.545Z,1.60
2017-10-03T09:58:36.013Z,3.17
2017-10-03T10:00:38.455Z,4.33
2017-10-03T10:02:40.953Z,2.13
2017-10-03T10:04:43.474Z,2.43
2017-10-03T10:06:45.987Z,2.43
2017-10-03T10:08:48.482Z,2.50
2017-10-03T10:10:50.919Z,1.93
2017-10-03T10:12:53.353Z,2.20
2017-10-03T10:14:55.825Z,1.80
2017-10-03T10:16:58.266Z,2.57
2017-10-03T10:19:00.705Z,2.27
2017-10-03T10:21:03.181Z,2.27
2017-10-03T10:23:05.621Z,2.40
2017-10-03T10:25:08.072Z,2.03
2017-10-03T10:27:10.545Z,1.63
2017-10-03T10:29:12.987Z,3.70
2017-10-03T10:31:15.427Z,1.97
2017-10-03T10:33:17.890Z,1.63
2017-10-03T10:35:20.375Z,2.47
2017-10-03T10:37:22.824Z,1.80
2017-10-03T10:39:25.286Z,1.90
2017-10-03T10:41:27.815Z,1.90
2017-10-03T10:43:30.257Z,4.53
2017-10-03T10:45:32.812Z,2.00
2017-10-03T10:47:35.259Z,2.07
2017-10-03T10:49:37.716Z,3.03
2017-10-03T10:51:40.222Z,3.13
2017-10-03T10:53:42.661Z,4.10
2017-10-03T10:55:45.107Z,2.50
2017-10-03T10:57:47.655Z,5.07
2017-10-03T10:59:50.108Z,2.67
2017-10-03T11:01:52.664Z,6.43
2017-10-03T11:03:55.164Z,3.27
2017-10-03T11:05:57.600Z,3.77
2017-10-03T11:08:00.056Z,1.87
2017-10-03T11:10:02.561Z,4.17
2017-10-03T11:12:05.041Z,2.67
2017-10-03T11:14:07.501Z,4.63
2017-10-03T11:16:09.954Z,6.93
2017-10-03T11:18:12.441Z,2.53
2017-10-03T11:20:14.884Z,1.93
2017-10-03T11:22:17.358Z,9.80
2017-10-03T11:24:31.732Z,6.53
2017-10-03T11:26:34.176Z,8.43
2017-10-03T11:28:36.640Z,9.63
2017-10-03T11:30:39.087Z,10.53
2017-10-03T11:32:41.524Z,5.93
2017-10-03T11:34:44.080Z,7.83
2017-10-03T11:36:46.513Z,9.87
2017-10-03T11:38:48.950Z,8.07
2017-10-03T11:40:51.422Z,5.73
2017-10-03T11:42:53.872Z,19.50
2017-10-03T11:44:56.325Z,17.03
2017-10-03T11:46:58.801Z,9.33
2017-10-03T11:49:01.252Z,10.50
2017-10-03T11:51:03.746Z,15.47
2017-10-03T11:53:06.426Z,18.53
2017-10-03T11:55:08.868Z,18.60
2017-10-03T11:57:11.370Z,7.90
2017-10-03T11:59:13.934Z,9.40
2017-10-03T12:01:16.404Z,15.40
2017-10-03T12:03:18.873Z,15.87
2017-10-03T12:05:21.333Z,29.13
2017-10-03T12:07:23.773Z,19.63
2017-10-03T12:09:26.293Z,9.88
2017-10-03T12:11:28.759Z,17.40
2017-10-03T12:13:31.208Z,16.67
2017-10-03T12:15:33.745Z,15.17
2017-10-03T12:17:36.272Z,19.07
2017-10-03T12:19:38.721Z,50.37
2017-10-03T12:21:41.175Z,44.78
2017-10-03T12:23:43.690Z,38.53
2017-10-03T12:25:46.208Z,12.13
2017-10-03T12:27:48.714Z,25.83
2017-10-03T12:29:51.191Z,27.57
2017-10-03T12:31:53.658Z,26.23
2017-10-03T12:33:56.119Z,20.60
2017-10-03T12:35:58.579Z,40.23
2017-10-03T12:38:01.026Z,28.33
2017-10-03T12:40:03.490Z,17.23
2017-10-03T12:42:05.949Z,26.57
2017-10-03T12:44:08.380Z,22.90
2017-10-03T12:46:10.852Z,9.97
2017-10-03T12:48:13.414Z,29.83
2017-10-03T12:50:15.865Z,13.67
2017-10-03T12:52:18.325Z,19.73
2017-10-03T12:54:20.873Z,16.63
2017-10-03T12:56:23.401Z,102.23
2017-10-03T12:58:25.852Z,30.93
2017-10-03T13:00:28.349Z,72.13
2017-10-03T13:02:30.796Z,80.07
2017-10-03T13:04:33.246Z,78.00
2017-10-03T13:06:35.752Z,173.83
2017-10-03T13:08:38.219Z,135.83
2017-10-03T13:10:40.658Z,79.97
2017-10-03T13:12:43.172Z,85.70
2017-10-03T13:14:45.649Z,58.27
2017-10-03T13:16:48.094Z,77.47
2017-10-03T13:18:50.576Z,30.67
2017-10-03T13:20:53.031Z,54.90
2017-10-03T13:22:55.492Z,51.77
2017-10-03T13:24:57.954Z,36.43
2017-10-03T13:27:00.387Z,46.97
2017-10-03T13:29:02.857Z,34.37
2017-10-03T13:31:05.404Z,39.87
2017-10-03T13:33:07.862Z,27.73
2017-10-03T13:35:10.339Z,21.33
2017-10-03T13:37:12.800Z,33.50
2017-10-03T13:39:15.273Z,31.70
2017-10-03T13:41:17.707Z,21.50
2017-10-03T13:43:20.188Z,23.17
2017-10-03T13:45:22.692Z,29.37
2017-10-03T13:47:25.126Z,22.20
2017-10-03T13:49:27.661Z,15.30
2017-10-03T13:51:30.108Z,23.90
2017-10-03T13:53:32.600Z,16.73
2017-10-03T13:55:35.145Z,27.87
2017-10-03T13:57:37.596Z,21.60
2017-10-03T13:59:40.057Z,25.83
2017-10-03T14:01:42.582Z,23.53
2017-10-03T14:03:45.036Z,19.93
2017-10-03T14:05:48.493Z,23.57
2017-10-03T14:07:50.971Z,30.00
2017-10-03T14:09:53.458Z,21.43
2017-10-03T14:11:55.901Z,16.73
2017-10-03T14:13:58.420Z,16.70
2017-10-03T14:16:00.888Z,20.30
2017-10-03T14:18:03.440Z,9.70
2017-10-03T14:20:05.910Z,9.63
2017-10-03T14:22:08.411Z,13.50
2017-10-03T14:24:10.891Z,8.07
2017-10-03T14:26:13.392Z,10.67
2017-10-03T14:28:15.890Z,14.10
2017-10-03T14:30:18.334Z,9.17
2017-10-03T14:32:20.831Z,7.23
2017-10-03T14:34:23.272Z,7.50
2017-10-03T14:36:25.772Z,13.07
2017-10-03T14:38:28.250Z,6.40
2017-10-03T14:40:30.700Z,12.13
2017-10-03T14:42:33.160Z,6.70
2017-10-03T14:44:35.648Z,5.87
2017-10-03T14:46:38.089Z,9.60
2017-10-03T14:48:40.529Z,8.27
2017-10-03T14:50:43.069Z,5.33
2017-10-03T14:52:45.523Z,6.73
2017-10-03T14:54:47.977Z,10.07
2017-10-03T14:56:50.564Z,8.37
2017-10-03T14:58:53.048Z,11.93
2017-10-03T15:00:55.493Z,4.73
2017-10-03T15:02:57.950Z,11.20
2017-10-03T15:05:00.405Z,14.40
2017-10-03T15:07:02.842Z,7.67
2017-10-03T15:09:05.304Z,8.57
2017-10-03T15:11:07.756Z,10.63
2017-10-03T15:13:10.240Z,8.20
2017-10-03T15:15:12.816Z,11.83
2017-10-03T15:17:15.297Z,8.20
2017-10-03T15:19:17.736Z,9.23
2017-10-03T15:21:20.201Z,5.80
2017-10-03T15:23:23.576Z,12.97
2017-10-03T15:25:26.101Z,8.17
2017-10-03T15:27:28.561Z,5.20
2017-10-03T15:29:31.020Z,4.70
2017-10-03T15:31:33.463Z,4.77
2017-10-03T15:33:35.946Z,12.37
2017-10-03T15:35:38.443Z,5.77
2017-10-03T15:37:40.881Z,6.47
2017-10-03T15:39:43.371Z,6.20
2017-10-03T15:41:45.852Z,7.27
2017-10-03T15:43:48.299Z,7.93
2017-10-03T15:45:50.748Z,9.40
2017-10-03T15:47:53.205Z,4.83
2017-10-03T15:49:55.643Z,7.77
2017-10-03T15:51:58.104Z,13.97
2017-10-03T15:54:00.589Z,8.83
2017-10-03T15:56:03.024Z,3.60
2017-10-03T15:58:05.600Z,4.83
2017-10-03T16:00:08.048Z,8.60
2017-10-03T16:02:10.508Z,7.30
2017-10-03T16:04:13.025Z,9.73
2017-10-03T16:06:15.465Z,4.70
2017-10-03T16:08:18.890Z,4.70
2017-10-03T16:10:21.353Z,6.60
2017-10-03T16:12:23.816Z,5.47
2017-10-03T16:14:26.287Z,5.97
2017-10-03T16:16:28.746Z,4.23
2017-10-03T16:18:31.183Z,4.90
2017-10-03T16:20:33.701Z,6.17
2017-10-03T16:22:36.166Z,8.60
2017-10-03T16:24:38.632Z,9.40
2017-10-03T16:26:41.099Z,9.17
2017-10-03T16:28:43.561Z,5.67
2017-10-03T16:30:45.993Z,3.30
2017-10-03T16:32:48.513Z,4.80
2017-10-03T16:34:50.991Z,6.30
2017-10-03T16:36:53.428Z,4.10
2017-10-03T16:38:55.867Z,4.80
2017-10-03T16:40:58.354Z,6.97
2017-10-03T16:43:00.790Z,4.07
2017-10-03T16:45:03.234Z,9.67
2017-10-03T16:47:05.704Z,8.30
2017-10-03T16:49:08.147Z,6.13
2017-10-03T16:51:10.597Z,6.43
2017-10-03T16:53:13.114Z,6.60
2017-10-03T16:55:15.632Z,8.37
2017-10-03T16:57:18.163Z,4.63
2017-10-03T16:59:20.708Z,4.40
2017-10-03T17:01:23.149Z,4.90
2017-10-03T17:03:25.772Z,6.50
2017-10-03T17:05:28.285Z,4.90
2017-10-03T17:07:30.722Z,21.53
2017-10-03T17:09:33.186Z,4.80
2017-10-03T17:11:35.714Z,5.00
2017-10-03T17:13:38.144Z,3.13
2017-10-03T17:15:40.571Z,5.17
2017-10-03T17:17:43.032Z,4.60
2017-10-03T17:19:45.541Z,5.73
2017-10-03T17:21:48.167Z,8.00
2017-10-03T17:23:50.628Z,5.37
2017-10-03T17:25:53.071Z,4.07
2017-10-03T17:27:55.535Z,4.20
2017-10-03T17:29:58.080Z,4.97
2017-10-03T17:32:00.513Z,4.47
2017-10-03T17:34:02.959Z,9.47
2017-10-03T17:36:05.497Z,3.13
2017-10-03T17:38:07.939Z,3.67
2017-10-03T17:40:10.382Z,4.30
2017-10-03T17:42:12.842Z,5.93
2017-10-03T17:44:15.279Z,5.40
2017-10-03T17:46:17.733Z,6.33
2017-10-03T17:48:20.196Z,7.03
2017-10-03T17:50:22.634Z,7.70
2017-10-03T17:52:25.069Z,5.93
2017-10-03T17:54:27.524Z,3.60
2017-10-03T17:56:30.016Z,2.93
2017-10-03T17:58:32.443Z,7.50
2017-10-03T18:00:35.078Z,4.47
2017-10-03T18:02:37.614Z,8.90
2017-10-03T18:04:40.080Z,3.27
2017-10-03T18:06:42.536Z,2.33
2017-10-03T18:08:45.010Z,5.57
2017-10-03T18:10:47.448Z,5.07
2017-10-03T18:12:49.969Z,4.43
2017-10-03T18:14:52.428Z,4.20
2017-10-03T18:16:54.912Z,3.17
2017-10-03T18:18:57.385Z,4.50
2017-10-03T18:20:59.847Z,3.90
2017-10-03T18:23:02.375Z,3.60
2017-10-03T18:25:04.892Z,4.83
2017-10-03T18:27:07.327Z,2.73
2017-10-03T18:29:10.737Z,5.87
2017-10-03T18:31:13.216Z,7.80
2017-10-03T18:33:15.672Z,7.20
2017-10-03T18:35:18.194Z,3.50
2017-10-03T18:37:20.703Z,4.57
2017-10-03T18:39:23.161Z,7.17
2017-10-03T18:41:25.599Z,4.70
2017-10-03T18:43:28.518Z,4.63
2017-10-03T18:45:31.060Z,3.13
2017-10-03T18:47:33.501Z,7.40
2017-10-03T18:49:37.426Z,3.00
2017-10-03T18:51:40.975Z,3.30
2017-10-03T18:53:43.429Z,2.40
2017-10-03T18:55:45.903Z,3.30
2017-10-03T18:57:48.339Z,4.90
2017-10-03T18:59:51.690Z,5.20
2017-10-03T19:01:54.249Z,3.27
2017-10-03T19:03:56.703Z,3.40
2017-10-03T19:05:59.140Z,4.63
2017-10-03T19:08:01.660Z,9.20
2017-10-03T19:10:05.071Z,4.33
2017-10-03T19:12:07.544Z,4.70
2017-10-03T19:14:09.998Z,5.03
2017-10-03T19:16:12.477Z,3.47
2017-10-03T19:18:14.930Z,8.03
2017-10-03T19:20:17.415Z,5.00
2017-10-03T19:22:19.847Z,6.90
2017-10-03T19:24:22.304Z,7.33
2017-10-03T19:26:24.757Z,3.67
2017-10-03T19:28:27.311Z,5.93
2017-10-03T19:30:29.765Z,5.87
2017-10-03T19:32:32.230Z,6.87
2017-10-03T19:34:34.655Z,5.17
2017-10-03T19:36:37.095Z,5.63
2017-10-03T19:38:39.552Z,2.37
2017-10-03T19:40:42.019Z,3.90
2017-10-03T19:42:44.483Z,3.50
2017-10-03T19:44:46.998Z,5.87
2017-10-03T19:46:49.457Z,2.20
2017-10-03T19:48:51.909Z,2.13
2017-10-03T19:50:54.405Z,3.43
2017-10-03T19:52:56.844Z,4.33
2017-10-03T19:54:59.284Z,2.30
2017-10-03T19:57:01.756Z,4.87
2017-10-03T19:59:04.201Z,2.17
2017-10-03T20:01:06.660Z,4.73
2017-10-03T20:03:09.258Z,3.00
2017-10-03T20:05:11.772Z,2.60
2017-10-03T20:07:14.215Z,3.47
2017-10-03T20:09:16.714Z,1.93
2017-10-03T20:11:19.148Z,3.73
2017-10-03T20:13:21.598Z,4.60
2017-10-03T20:15:24.107Z,7.20
2017-10-03T20:17:26.545Z,5.30
2017-10-03T20:19:28.980Z,4.23
2017-10-03T20:21:31.442Z,3.33
2017-10-03T20:23:33.908Z,12.13
2017-10-03T20:25:36.344Z,3.40
2017-10-03T20:27:38.806Z,2.33
2017-10-03T20:29:41.246Z,3.50
2017-10-03T20:31:43.769Z,5.47
2017-10-03T20:33:46.245Z,2.70
2017-10-03T20:35:48.679Z,3.20
2017-10-03T20:37:51.140Z,3.47
2017-10-03T20:39:53.615Z,3.90
2017-10-03T20:41:56.058Z,3.10
2017-10-03T20:43:58.594Z,3.33
2017-10-03T20:46:01.084Z,2.50
2017-10-03T20:48:03.531Z,2.77
2017-10-03T20:50:05.975Z,2.53
2017-10-03T20:52:08.442Z,2.87
2017-10-03T20:54:10.941Z,1.93
2017-10-03T20:56:13.371Z,2.73
2017-10-03T20:58:15.836Z,2.60
2017-10-03T21:00:18.363Z,5.93
2017-10-03T21:02:20.806Z,3.10
2017-10-03T21:04:23.384Z,6.30
2017-10-03T21:06:25.824Z,5.37
2017-10-03T21:08:28.265Z,8.20
2017-10-03T21:10:30.740Z,4.07
2017-10-03T21:12:33.177Z,3.63
2017-10-03T21:14:35.621Z,4.37
2017-10-03T21:16:38.095Z,3.00
2017-10-03T21:18:40.541Z,4.17
2017-10-03T21:20:43.052Z,4.00
2017-10-03T21:22:45.510Z,3.83
2017-10-03T21:24:47.946Z,2.60
2017-10-03T21:26:50.463Z,3.77
2017-10-03T21:28:52.946Z,5.33
2017-10-03T21:30:55.388Z,2.93
2017-10-03T21:32:57.829Z,4.80
2017-10-03T21:35:00.327Z,3.33
2017-10-03T21:37:02.878Z,2.33
2017-10-03T21:39:05.400Z,3.17
2017-10-03T21:41:07.863Z,3.83
2017-10-03T21:43:12.843Z,2.23
2017-10-03T21:45:15.275Z,3.17
2017-10-03T21:47:17.743Z,2.30
2017-10-03T21:49:20.209Z,2.07
2017-10-03T21:51:22.645Z,4.53
2017-10-03T21:53:25.111Z,2.33
2017-10-03T21:55:27.619Z,1.90
2017-10-03T21:57:30.057Z,1.77
2017-10-03T21:59:32.635Z,3.97
2017-10-03T22:01:35.091Z,4.50
2017-10-03T22:03:37.537Z,1.80
2017-10-03T22:05:40.049Z,1.70
2017-10-03T22:07:42.560Z,2.07
2017-10-03T22:09:45.018Z,2.27
2017-10-03T22:11:47.511Z,2.13
2017-10-03T22:13:49.956Z,1.70
2017-10-03T22:15:52.410Z,3.93
2017-10-03T22:17:54.889Z,3.87
2017-10-03T22:19:57.358Z,3.07
2017-10-03T22:21:59.789Z,2.30
2017-10-03T22:24:02.256Z,2.17
2017-10-03T22:26:04.701Z,2.07
2017-10-03T22:28:07.155Z,3.73
2017-10-03T22:30:09.609Z,2.10
2017-10-03T22:32:12.062Z,2.53
2017-10-03T22:34:14.498Z,2.40
2017-10-03T22:36:16.958Z,2.37
2017-10-03T22:38:19.485Z,2.10
2017-10-03T22:40:21.966Z,2.30
2017-10-03T22:42:24.437Z,1.80
2017-10-03T22:44:26.880Z,4.37
2017-10-03T22:46:29.321Z,2.80
2017-10-03T22:48:31.774Z,3.00
2017-10-03T22:50:34.211Z,4.13
2017-10-03T22:52:36.672Z,4.60
2017-10-03T22:54:39.135Z,3.67
2017-10-03T22:56:41.614Z,2.50
2017-10-03T22:58:44.087Z,3.77
2017-10-03T23:00:46.558Z,2.20
2017-10-03T23:02:49.017Z,4.63
2017-10-03T23:04:51.490Z,3.30
2017-10-03T23:06:54.175Z,2.27
2017-10-03T23:08:56.613Z,2.80
2017-10-03T23:10:59.116Z,3.20
2017-10-03T23:13:01.579Z,2.73
2017-10-03T23:15:04.044Z,3.00
2017-10-03T23:17:06.478Z,2.47
2017-10-03T23:19:08.937Z,3.20
2017-10-03T23:21:11.371Z,2.30
2017-10-03T23:23:13.808Z,3.23
2017-10-03T23:25:16.302Z,2.00
2017-10-03T23:27:18.739Z,2.20
2017-10-03T23:29:21.194Z,2.87
2017-10-03T23:31:23.704Z,2.73
2017-10-03T23:33:26.140Z,2.63
2017-10-03T23:35:28.570Z,3.33
2017-10-03T23:37:31.034Z,2.07
2017-10-03T23:39:33.501Z,2.43
2017-10-03T23:41:36.056Z,2.80
2017-10-03T23:43:38.521Z,3.93
2017-10-03T23:45:41.002Z,3.37
2017-10-03T23:47:43.435Z,2.50
2017-10-03T23:49:45.901Z,4.47
2017-10-03T23:51:48.418Z,2.80
2017-10-03T23:53:50.861Z,3.10
2017-10-03T23:55:53.334Z,1.40
2017-10-03T23:57:55.782Z,4.90
2017-10-03T23:59:58.222Z,2.40
